Terminal Aerodrome Forecast
Issued by NWS

Home | Current Version | Previous Version | Text Only | Print | Product List | Glossary On
Versions: 1 2 3 4 5 6 7 8 9 10 11 12 13 14
360
FTUS46 KSEW 251739
TAFCLM
TAF
KCLM 251739Z 2518/2618 30013G20KT P6SM SCT018 BKN200
     FM252200 30014G24KT P6SM SKC
     FM261100 27012KT P6SM SCT012 BKN020 BKN200=

USA.gov is the U.S. government's official web portal to all federal, state and local government web resources and services.